sensor_id;sensor_type;location;lat;lon;timestamp;P1;durP1;ratioP1;P2;durP2;ratioP2
77876;SDS011;67251;50.844;7.978;2023-09-08T00:01:48;10.45;;;5.20;;
77876;SDS011;67251;50.844;7.978;2023-09-08T00:04:13;10.45;;;5.43;;
77876;SDS011;67251;50.844;7.978;2023-09-08T00:06:39;9.05;;;4.78;;
77876;SDS011;67251;50.844;7.978;2023-09-08T00:09:05;14.73;;;8.43;;
77876;SDS011;67251;50.844;7.978;2023-09-08T00:11:31;13.95;;;7.88;;
77876;SDS011;67251;50.844;7.978;2023-09-08T00:13:56;13.40;;;7.45;;
77876;SDS011;67251;50.844;7.978;2023-09-08T00:16:22;13.82;;;6.97;;
77876;SDS011;67251;50.844;7.978;2023-09-08T00:18:47;14.15;;;8.10;;
77876;SDS011;67251;50.844;7.978;2023-09-08T00:21:13;12.48;;;7.15;;
77876;SDS011;67251;50.844;7.978;2023-09-08T00:23:38;11.85;;;6.45;;
77876;SDS011;67251;50.844;7.978;2023-09-08T00:26:04;14.57;;;7.30;;
77876;SDS011;67251;50.844;7.978;2023-09-08T00:28:29;15.15;;;7.90;;
77876;SDS011;67251;50.844;7.978;2023-09-08T00:30:54;16.25;;;9.13;;
77876;SDS011;67251;50.844;7.978;2023-09-08T00:33:20;13.05;;;6.80;;
77876;SDS011;67251;50.844;7.978;2023-09-08T00:35:50;14.40;;;7.55;;
77876;SDS011;67251;50.844;7.978;2023-09-08T00:38:16;14.02;;;7.75;;
77876;SDS011;67251;50.844;7.978;2023-09-08T00:40:41;12.15;;;6.40;;
77876;SDS011;67251;50.844;7.978;2023-09-08T00:43:07;12.05;;;6.00;;
77876;SDS011;67251;50.844;7.978;2023-09-08T00:45:32;14.05;;;5.22;;
77876;SDS011;67251;50.844;7.978;2023-09-08T00:48:03;10.77;;;5.43;;
77876;SDS011;67251;50.844;7.978;2023-09-08T00:50:29;10.02;;;5.55;;
77876;SDS011;67251;50.844;7.978;2023-09-08T00:52:54;12.80;;;5.57;;
77876;SDS011;67251;50.844;7.978;2023-09-08T00:55:20;10.02;;;5.60;;
77876;SDS011;67251;50.844;7.978;2023-09-08T00:57:45;12.23;;;4.88;;
77876;SDS011;67251;50.844;7.978;2023-09-08T01:00:10;14.38;;;5.43;;
77876;SDS011;67251;50.844;7.978;2023-09-08T01:02:36;9.88;;;4.75;;
77876;SDS011;67251;50.844;7.978;2023-09-08T01:05:02;12.07;;;5.13;;
77876;SDS011;67251;50.844;7.978;2023-09-08T01:07:28;12.98;;;5.82;;
77876;SDS011;67251;50.844;7.978;2023-09-08T01:09:55;11.32;;;5.47;;
77876;SDS011;67251;50.844;7.978;2023-09-08T01:12:21;13.50;;;5.38;;
77876;SDS011;67251;50.844;7.978;2023-09-08T01:14:46;11.60;;;5.75;;
77876;SDS011;67251;50.844;7.978;2023-09-08T01:17:12;11.23;;;5.25;;
77876;SDS011;67251;50.844;7.978;2023-09-08T01:19:37;10.45;;;5.63;;
77876;SDS011;67251;50.844;7.978;2023-09-08T01:25:12;13.65;;;6.20;;
77876;SDS011;67251;50.844;7.978;2023-09-08T01:27:47;12.32;;;6.18;;
77876;SDS011;67251;50.844;7.978;2023-09-08T01:32:41;13.05;;;5.63;;
77876;SDS011;67251;50.844;7.978;2023-09-08T01:35:09;11.50;;;5.70;;
77876;SDS011;67251;50.844;7.978;2023-09-08T01:37:35;12.30;;;6.93;;
77876;SDS011;67251;50.844;7.978;2023-09-08T01:40:01;11.13;;;6.70;;
77876;SDS011;67251;50.844;7.978;2023-09-08T01:42:26;13.88;;;6.97;;
77876;SDS011;67251;50.844;7.978;2023-09-08T01:50:01;12.75;;;6.85;;
77876;SDS011;67251;50.844;7.978;2023-09-08T01:52:27;13.27;;;6.78;;
77876;SDS011;67251;50.844;7.978;2023-09-08T01:54:52;15.35;;;7.15;;
77876;SDS011;67251;50.844;7.978;2023-09-08T01:57:18;14.00;;;6.43;;
77876;SDS011;67251;50.844;7.978;2023-09-08T01:59:43;12.60;;;6.22;;
77876;SDS011;67251;50.844;7.978;2023-09-08T02:02:10;11.63;;;6.22;;
77876;SDS011;67251;50.844;7.978;2023-09-08T02:04:35;12.07;;;6.03;;
77876;SDS011;67251;50.844;7.978;2023-09-08T02:07:01;14.77;;;6.30;;
77876;SDS011;67251;50.844;7.978;2023-09-08T02:09:32;12.50;;;6.00;;
77876;SDS011;67251;50.844;7.978;2023-09-08T02:12:02;10.90;;;5.65;;
77876;SDS011;67251;50.844;7.978;2023-09-08T02:14:28;12.85;;;5.88;;
77876;SDS011;67251;50.844;7.978;2023-09-08T02:16:54;10.95;;;5.65;;
77876;SDS011;67251;50.844;7.978;2023-09-08T02:19:19;13.77;;;6.03;;
77876;SDS011;67251;50.844;7.978;2023-09-08T02:21:45;12.10;;;5.63;;
77876;SDS011;67251;50.844;7.978;2023-09-08T02:24:10;12.73;;;5.32;;
77876;SDS011;67251;50.844;7.978;2023-09-08T02:26:38;10.73;;;5.47;;
77876;SDS011;67251;50.844;7.978;2023-09-08T02:29:03;10.32;;;5.63;;
77876;SDS011;67251;50.844;7.978;2023-09-08T02:31:29;11.25;;;5.63;;
77876;SDS011;67251;50.844;7.978;2023-09-08T02:33:54;12.68;;;5.20;;
77876;SDS011;67251;50.844;7.978;2023-09-08T02:36:20;10.82;;;5.28;;
77876;SDS011;67251;50.844;7.978;2023-09-08T02:38:54;11.48;;;5.10;;
77876;SDS011;67251;50.844;7.978;2023-09-08T02:41:21;10.20;;;5.32;;
77876;SDS011;67251;50.844;7.978;2023-09-08T02:43:47;10.73;;;5.70;;
77876;SDS011;67251;50.844;7.978;2023-09-08T02:46:13;10.48;;;5.25;;
77876;SDS011;67251;50.844;7.978;2023-09-08T02:48:38;12.30;;;5.88;;
77876;SDS011;67251;50.844;7.978;2023-09-08T02:51:04;13.48;;;5.70;;
77876;SDS011;67251;50.844;7.978;2023-09-08T02:53:29;11.38;;;5.88;;
77876;SDS011;67251;50.844;7.978;2023-09-08T02:55:56;11.18;;;5.70;;
77876;SDS011;67251;50.844;7.978;2023-09-08T02:58:21;12.20;;;5.95;;
77876;SDS011;67251;50.844;7.978;2023-09-08T03:00:47;12.10;;;6.20;;
77876;SDS011;67251;50.844;7.978;2023-09-08T03:03:12;12.98;;;5.90;;
77876;SDS011;67251;50.844;7.978;2023-09-08T03:05:38;13.27;;;6.30;;
77876;SDS011;67251;50.844;7.978;2023-09-08T03:08:03;12.35;;;6.13;;
77876;SDS011;67251;50.844;7.978;2023-09-08T03:10:30;13.30;;;5.70;;
77876;SDS011;67251;50.844;7.978;2023-09-08T03:12:59;13.52;;;6.50;;
77876;SDS011;67251;50.844;7.978;2023-09-08T03:15:25;13.25;;;6.38;;
77876;SDS011;67251;50.844;7.978;2023-09-08T03:17:53;12.77;;;6.78;;
77876;SDS011;67251;50.844;7.978;2023-09-08T03:20:19;11.45;;;5.72;;
77876;SDS011;67251;50.844;7.978;2023-09-08T03:22:44;12.05;;;5.97;;
77876;SDS011;67251;50.844;7.978;2023-09-08T03:25:10;11.85;;;6.13;;
77876;SDS011;67251;50.844;7.978;2023-09-08T03:27:35;11.88;;;5.70;;
77876;SDS011;67251;50.844;7.978;2023-09-08T03:30:01;11.77;;;6.07;;
77876;SDS011;67251;50.844;7.978;2023-09-08T03:32:26;12.52;;;5.72;;
77876;SDS011;67251;50.844;7.978;2023-09-08T03:34:53;11.35;;;5.68;;
77876;SDS011;67251;50.844;7.978;2023-09-08T03:37:19;11.77;;;5.20;;
77876;SDS011;67251;50.844;7.978;2023-09-08T03:39:44;10.57;;;5.30;;
77876;SDS011;67251;50.844;7.978;2023-09-08T03:42:09;11.07;;;5.32;;
77876;SDS011;67251;50.844;7.978;2023-09-08T03:44:35;11.93;;;5.15;;
77876;SDS011;67251;50.844;7.978;2023-09-08T03:47:00;10.45;;;5.78;;
77876;SDS011;67251;50.844;7.978;2023-09-08T03:49:27;9.75;;;4.97;;
77876;SDS011;67251;50.844;7.978;2023-09-08T03:51:53;10.02;;;5.15;;
77876;SDS011;67251;50.844;7.978;2023-09-08T03:54:18;10.05;;;5.32;;
77876;SDS011;67251;50.844;7.978;2023-09-08T03:56:43;10.75;;;5.75;;
77876;SDS011;67251;50.844;7.978;2023-09-08T03:59:09;11.32;;;5.80;;
77876;SDS011;67251;50.844;7.978;2023-09-08T04:01:34;12.93;;;5.20;;
77876;SDS011;67251;50.844;7.978;2023-09-08T04:03:59;11.52;;;5.50;;
77876;SDS011;67251;50.844;7.978;2023-09-08T04:06:24;10.95;;;5.20;;
77876;SDS011;67251;50.844;7.978;2023-09-08T04:08:50;11.18;;;5.07;;
77876;SDS011;67251;50.844;7.978;2023-09-08T04:11:15;11.80;;;5.10;;
77876;SDS011;67251;50.844;7.978;2023-09-08T04:13:41;12.57;;;5.63;;
77876;SDS011;67251;50.844;7.978;2023-09-08T04:16:06;11.80;;;4.93;;
77876;SDS011;67251;50.844;7.978;2023-09-08T04:18:31;12.55;;;5.75;;
77876;SDS011;67251;50.844;7.978;2023-09-08T04:20:57;13.13;;;5.63;;
77876;SDS011;67251;50.844;7.978;2023-09-08T04:23:22;10.40;;;5.72;;
77876;SDS011;67251;50.844;7.978;2023-09-08T04:25:47;11.73;;;5.32;;
77876;SDS011;67251;50.844;7.978;2023-09-08T04:28:13;11.75;;;5.50;;
77876;SDS011;67251;50.844;7.978;2023-09-08T04:30:38;11.95;;;5.68;;
77876;SDS011;67251;50.844;7.978;2023-09-08T04:33:04;10.38;;;5.18;;
77876;SDS011;67251;50.844;7.978;2023-09-08T04:35:29;13.90;;;5.45;;
77876;SDS011;67251;50.844;7.978;2023-09-08T04:37:54;11.48;;;5.88;;
77876;SDS011;67251;50.844;7.978;2023-09-08T04:40:20;10.35;;;5.35;;
77876;SDS011;67251;50.844;7.978;2023-09-08T04:42:45;12.93;;;5.18;;
77876;SDS011;67251;50.844;7.978;2023-09-08T04:45:10;11.13;;;5.15;;
77876;SDS011;67251;50.844;7.978;2023-09-08T04:47:36;11.43;;;5.43;;
77876;SDS011;67251;50.844;7.978;2023-09-08T04:50:02;10.25;;;4.80;;
77876;SDS011;67251;50.844;7.978;2023-09-08T04:52:28;11.18;;;5.43;;
77876;SDS011;67251;50.844;7.978;2023-09-08T04:54:54;12.05;;;5.85;;
77876;SDS011;67251;50.844;7.978;2023-09-08T04:57:19;9.25;;;5.00;;
77876;SDS011;67251;50.844;7.978;2023-09-08T04:59:44;9.43;;;5.05;;
77876;SDS011;67251;50.844;7.978;2023-09-08T05:02:10;11.90;;;5.70;;
77876;SDS011;67251;50.844;7.978;2023-09-08T05:04:35;12.88;;;5.55;;
77876;SDS011;67251;50.844;7.978;2023-09-08T05:07:00;13.65;;;5.90;;
77876;SDS011;67251;50.844;7.978;2023-09-08T05:09:26;13.98;;;5.57;;
77876;SDS011;67251;50.844;7.978;2023-09-08T05:11:51;13.35;;;6.35;;
77876;SDS011;67251;50.844;7.978;2023-09-08T05:14:16;10.70;;;5.47;;
77876;SDS011;67251;50.844;7.978;2023-09-08T05:16:42;12.23;;;5.63;;
77876;SDS011;67251;50.844;7.978;2023-09-08T05:19:11;12.82;;;5.75;;
77876;SDS011;67251;50.844;7.978;2023-09-08T05:21:38;11.60;;;6.15;;
77876;SDS011;67251;50.844;7.978;2023-09-08T05:24:04;10.43;;;4.93;;
77876;SDS011;67251;50.844;7.978;2023-09-08T05:26:29;9.95;;;5.40;;
77876;SDS011;67251;50.844;7.978;2023-09-08T05:28:55;9.88;;;5.15;;
77876;SDS011;67251;50.844;7.978;2023-09-08T05:31:20;10.52;;;5.13;;
77876;SDS011;67251;50.844;7.978;2023-09-08T05:33:48;12.07;;;5.00;;
77876;SDS011;67251;50.844;7.978;2023-09-08T05:36:13;12.77;;;5.60;;
77876;SDS011;67251;50.844;7.978;2023-09-08T05:38:38;13.00;;;5.30;;
77876;SDS011;67251;50.844;7.978;2023-09-08T05:41:04;11.40;;;5.50;;
77876;SDS011;67251;50.844;7.978;2023-09-08T05:43:29;9.80;;;5.22;;
77876;SDS011;67251;50.844;7.978;2023-09-08T05:45:54;12.82;;;4.93;;
77876;SDS011;67251;50.844;7.978;2023-09-08T05:48:20;10.43;;;5.30;;
77876;SDS011;67251;50.844;7.978;2023-09-08T05:50:45;10.98;;;5.25;;
77876;SDS011;67251;50.844;7.978;2023-09-08T05:53:10;12.30;;;5.28;;
77876;SDS011;67251;50.844;7.978;2023-09-08T05:55:36;11.40;;;5.28;;
77876;SDS011;67251;50.844;7.978;2023-09-08T05:58:01;10.30;;;5.05;;
77876;SDS011;67251;50.844;7.978;2023-09-08T06:00:27;10.48;;;5.28;;
77876;SDS011;67251;50.844;7.978;2023-09-08T06:02:52;10.88;;;5.43;;
77876;SDS011;67251;50.844;7.978;2023-09-08T06:05:18;11.93;;;5.03;;
77876;SDS011;67251;50.844;7.978;2023-09-08T06:07:43;10.10;;;5.55;;
77876;SDS011;67251;50.844;7.978;2023-09-08T06:10:08;11.55;;;5.47;;
77876;SDS011;67251;50.844;7.978;2023-09-08T06:12:34;14.52;;;5.97;;
77876;SDS011;67251;50.844;7.978;2023-09-08T06:15:01;11.07;;;6.07;;
77876;SDS011;67251;50.844;7.978;2023-09-08T06:17:28;13.85;;;6.55;;
77876;SDS011;67251;50.844;7.978;2023-09-08T06:19:53;14.30;;;7.30;;
77876;SDS011;67251;50.844;7.978;2023-09-08T06:22:19;15.77;;;7.60;;
77876;SDS011;67251;50.844;7.978;2023-09-08T06:24:44;16.98;;;7.80;;
77876;SDS011;67251;50.844;7.978;2023-09-08T06:27:09;19.67;;;8.93;;
77876;SDS011;67251;50.844;7.978;2023-09-08T06:29:36;19.73;;;8.82;;
77876;SDS011;67251;50.844;7.978;2023-09-08T06:32:02;17.42;;;7.65;;
77876;SDS011;67251;50.844;7.978;2023-09-08T06:34:27;14.43;;;7.55;;
77876;SDS011;67251;50.844;7.978;2023-09-08T06:36:52;16.42;;;7.75;;
77876;SDS011;67251;50.844;7.978;2023-09-08T06:39:18;14.38;;;7.05;;
77876;SDS011;67251;50.844;7.978;2023-09-08T06:41:43;17.45;;;7.57;;
77876;SDS011;67251;50.844;7.978;2023-09-08T06:44:10;15.25;;;6.88;;
77876;SDS011;67251;50.844;7.978;2023-09-08T06:46:37;16.20;;;7.82;;
77876;SDS011;67251;50.844;7.978;2023-09-08T06:49:02;14.30;;;7.28;;
77876;SDS011;67251;50.844;7.978;2023-09-08T06:51:27;14.55;;;7.30;;
77876;SDS011;67251;50.844;7.978;2023-09-08T06:53:53;14.50;;;7.32;;
77876;SDS011;67251;50.844;7.978;2023-09-08T06:56:22;17.10;;;8.52;;
77876;SDS011;67251;50.844;7.978;2023-09-08T06:58:48;14.52;;;7.57;;
77876;SDS011;67251;50.844;7.978;2023-09-08T07:01:14;10.95;;;5.97;;
77876;SDS011;67251;50.844;7.978;2023-09-08T07:03:39;10.52;;;5.75;;
77876;SDS011;67251;50.844;7.978;2023-09-08T07:06:04;18.40;;;5.80;;
77876;SDS011;67251;50.844;7.978;2023-09-08T07:08:30;10.20;;;5.57;;
77876;SDS011;67251;50.844;7.978;2023-09-08T07:10:55;10.07;;;5.22;;
77876;SDS011;67251;50.844;7.978;2023-09-08T07:13:20;10.27;;;5.38;;
77876;SDS011;67251;50.844;7.978;2023-09-08T07:15:46;10.73;;;5.38;;
77876;SDS011;67251;50.844;7.978;2023-09-08T07:18:11;12.20;;;5.55;;
77876;SDS011;67251;50.844;7.978;2023-09-08T07:20:36;12.23;;;5.68;;
77876;SDS011;67251;50.844;7.978;2023-09-08T07:23:02;11.05;;;5.80;;
77876;SDS011;67251;50.844;7.978;2023-09-08T07:25:27;10.35;;;5.45;;
77876;SDS011;67251;50.844;7.978;2023-09-08T07:27:53;13.80;;;5.72;;
77876;SDS011;67251;50.844;7.978;2023-09-08T07:30:19;10.68;;;6.22;;
77876;SDS011;67251;50.844;7.978;2023-09-08T07:32:45;12.73;;;5.25;;
77876;SDS011;67251;50.844;7.978;2023-09-08T07:35:10;9.85;;;5.20;;
77876;SDS011;67251;50.844;7.978;2023-09-08T07:37:39;12.68;;;5.82;;
77876;SDS011;67251;50.844;7.978;2023-09-08T07:40:06;9.60;;;5.25;;
77876;SDS011;67251;50.844;7.978;2023-09-08T07:42:32;11.38;;;5.50;;
77876;SDS011;67251;50.844;7.978;2023-09-08T07:44:58;8.98;;;5.65;;
77876;SDS011;67251;50.844;7.978;2023-09-08T07:47:23;9.90;;;5.65;;
77876;SDS011;67251;50.844;7.978;2023-09-08T07:49:48;12.48;;;5.60;;
77876;SDS011;67251;50.844;7.978;2023-09-08T07:52:14;10.82;;;6.10;;
77876;SDS011;67251;50.844;7.978;2023-09-08T07:54:39;11.40;;;5.88;;
77876;SDS011;67251;50.844;7.978;2023-09-08T07:57:05;9.10;;;5.53;;
77876;SDS011;67251;50.844;7.978;2023-09-08T07:59:30;11.32;;;6.30;;
77876;SDS011;67251;50.844;7.978;2023-09-08T08:01:55;13.25;;;6.05;;
77876;SDS011;67251;50.844;7.978;2023-09-08T08:04:21;10.73;;;6.15;;
77876;SDS011;67251;50.844;7.978;2023-09-08T08:06:46;10.88;;;5.32;;
77876;SDS011;67251;50.844;7.978;2023-09-08T08:09:13;11.23;;;5.35;;
77876;SDS011;67251;50.844;7.978;2023-09-08T08:11:38;14.05;;;5.75;;
77876;SDS011;67251;50.844;7.978;2023-09-08T08:14:03;10.82;;;5.97;;
77876;SDS011;67251;50.844;7.978;2023-09-08T08:16:29;8.68;;;5.32;;
77876;SDS011;67251;50.844;7.978;2023-09-08T08:18:54;8.65;;;4.70;;
77876;SDS011;67251;50.844;7.978;2023-09-08T08:21:20;8.25;;;4.45;;
77876;SDS011;67251;50.844;7.978;2023-09-08T08:23:47;7.55;;;4.55;;
77876;SDS011;67251;50.844;7.978;2023-09-08T08:26:13;9.43;;;4.88;;
77876;SDS011;67251;50.844;7.978;2023-09-08T08:28:38;8.30;;;4.65;;
77876;SDS011;67251;50.844;7.978;2023-09-08T08:31:03;7.72;;;4.25;;
77876;SDS011;67251;50.844;7.978;2023-09-08T08:33:29;6.97;;;4.03;;
77876;SDS011;67251;50.844;7.978;2023-09-08T08:35:55;7.43;;;4.53;;
77876;SDS011;67251;50.844;7.978;2023-09-08T08:38:21;8.90;;;4.60;;
77876;SDS011;67251;50.844;7.978;2023-09-08T08:40:46;7.80;;;4.20;;
77876;SDS011;67251;50.844;7.978;2023-09-08T08:43:12;6.88;;;3.92;;
77876;SDS011;67251;50.844;7.978;2023-09-08T08:45:37;8.43;;;4.38;;
77876;SDS011;67251;50.844;7.978;2023-09-08T08:48:06;9.70;;;4.38;;
77876;SDS011;67251;50.844;7.978;2023-09-08T08:50:33;7.30;;;4.10;;
77876;SDS011;67251;50.844;7.978;2023-09-08T08:53:00;7.85;;;4.20;;
77876;SDS011;67251;50.844;7.978;2023-09-08T08:55:29;7.20;;;3.92;;
77876;SDS011;67251;50.844;7.978;2023-09-08T08:57:55;7.22;;;3.55;;
77876;SDS011;67251;50.844;7.978;2023-09-08T09:00:27;6.72;;;3.45;;
77876;SDS011;67251;50.844;7.978;2023-09-08T09:02:52;6.32;;;3.22;;
77876;SDS011;67251;50.844;7.978;2023-09-08T09:05:19;6.18;;;3.60;;
77876;SDS011;67251;50.844;7.978;2023-09-08T09:07:44;8.27;;;3.65;;
77876;SDS011;67251;50.844;7.978;2023-09-08T09:10:10;5.93;;;3.70;;
77876;SDS011;67251;50.844;7.978;2023-09-08T09:12:36;5.20;;;3.20;;
77876;SDS011;67251;50.844;7.978;2023-09-08T09:15:06;6.90;;;3.65;;
77876;SDS011;67251;50.844;7.978;2023-09-08T09:17:33;6.03;;;4.00;;
77876;SDS011;67251;50.844;7.978;2023-09-08T09:20:12;6.15;;;3.85;;
77876;SDS011;67251;50.844;7.978;2023-09-08T09:25:05;6.10;;;3.33;;
77876;SDS011;67251;50.844;7.978;2023-09-08T09:27:32;8.10;;;3.42;;
77876;SDS011;67251;50.844;7.978;2023-09-08T09:30:02;5.72;;;3.40;;
77876;SDS011;67251;50.844;7.978;2023-09-08T09:32:28;5.50;;;3.53;;
77876;SDS011;67251;50.844;7.978;2023-09-08T09:34:54;5.97;;;3.42;;
77876;SDS011;67251;50.844;7.978;2023-09-08T09:37:21;6.68;;;3.50;;
77876;SDS011;67251;50.844;7.978;2023-09-08T09:39:53;5.50;;;3.50;;
77876;SDS011;67251;50.844;7.978;2023-09-08T09:42:20;6.47;;;3.60;;
77876;SDS011;67251;50.844;7.978;2023-09-08T09:44:51;6.32;;;3.60;;
77876;SDS011;67251;50.844;7.978;2023-09-08T09:47:16;5.68;;;3.60;;
77876;SDS011;67251;50.844;7.978;2023-09-08T09:49:46;6.10;;;3.65;;
77876;SDS011;67251;50.844;7.978;2023-09-08T09:52:13;6.25;;;3.60;;
77876;SDS011;67251;50.844;7.978;2023-09-08T09:54:42;6.45;;;3.80;;
77876;SDS011;67251;50.844;7.978;2023-09-08T09:57:12;8.35;;;3.80;;
77876;SDS011;67251;50.844;7.978;2023-09-08T09:59:42;6.25;;;3.20;;
77876;SDS011;67251;50.844;7.978;2023-09-08T10:02:16;6.43;;;3.58;;
77876;SDS011;67251;50.844;7.978;2023-09-08T10:04:45;7.25;;;4.10;;
77876;SDS011;67251;50.844;7.978;2023-09-08T10:07:12;6.50;;;3.63;;
77876;SDS011;67251;50.844;7.978;2023-09-08T10:09:40;5.40;;;3.40;;
77876;SDS011;67251;50.844;7.978;2023-09-08T10:12:05;5.35;;;3.60;;
77876;SDS011;67251;50.844;7.978;2023-09-08T10:14:35;5.53;;;3.42;;
77876;SDS011;67251;50.844;7.978;2023-09-08T10:17:04;5.50;;;3.55;;
77876;SDS011;67251;50.844;7.978;2023-09-08T10:19:30;6.38;;;3.45;;
77876;SDS011;67251;50.844;7.978;2023-09-08T10:21:59;6.13;;;3.38;;
77876;SDS011;67251;50.844;7.978;2023-09-08T10:24:29;6.30;;;3.65;;
77876;SDS011;67251;50.844;7.978;2023-09-08T10:27:09;7.25;;;3.60;;
77876;SDS011;67251;50.844;7.978;2023-09-08T10:29:35;6.25;;;3.90;;
77876;SDS011;67251;50.844;7.978;2023-09-08T10:32:02;7.22;;;3.53;;
77876;SDS011;67251;50.844;7.978;2023-09-08T10:34:30;6.22;;;3.55;;
77876;SDS011;67251;50.844;7.978;2023-09-08T10:36:56;6.20;;;3.63;;
77876;SDS011;67251;50.844;7.978;2023-09-08T10:39:35;6.63;;;3.85;;
77876;SDS011;67251;50.844;7.978;2023-09-08T10:44:41;5.72;;;3.65;;
77876;SDS011;67251;50.844;7.978;2023-09-08T10:47:30;6.80;;;3.83;;
77876;SDS011;67251;50.844;7.978;2023-09-08T10:49:58;7.55;;;3.78;;
77876;SDS011;67251;50.844;7.978;2023-09-08T10:52:25;6.97;;;3.33;;
77876;SDS011;67251;50.844;7.978;2023-09-08T10:54:51;8.00;;;3.30;;
77876;SDS011;67251;50.844;7.978;2023-09-08T10:57:24;6.90;;;3.53;;
77876;SDS011;67251;50.844;7.978;2023-09-08T10:59:54;6.47;;;3.67;;
77876;SDS011;67251;50.844;7.978;2023-09-08T11:05:13;5.55;;;3.20;;
77876;SDS011;67251;50.844;7.978;2023-09-08T11:07:40;5.57;;;3.28;;
77876;SDS011;67251;50.844;7.978;2023-09-08T11:10:10;6.22;;;3.40;;
77876;SDS011;67251;50.844;7.978;2023-09-08T11:12:36;6.65;;;3.58;;
77876;SDS011;67251;50.844;7.978;2023-09-08T11:15:02;6.93;;;3.28;;
77876;SDS011;67251;50.844;7.978;2023-09-08T11:17:30;7.13;;;3.38;;
77876;SDS011;67251;50.844;7.978;2023-09-08T11:19:56;6.50;;;3.35;;
77876;SDS011;67251;50.844;7.978;2023-09-08T11:22:23;7.05;;;3.97;;
77876;SDS011;67251;50.844;7.978;2023-09-08T11:24:50;5.85;;;3.10;;
77876;SDS011;67251;50.844;7.978;2023-09-08T11:27:17;5.13;;;3.25;;
77876;SDS011;67251;50.844;7.978;2023-09-08T11:29:43;7.38;;;3.60;;
77876;SDS011;67251;50.844;7.978;2023-09-08T11:32:09;6.40;;;3.60;;
77876;SDS011;67251;50.844;7.978;2023-09-08T11:34:35;6.20;;;3.85;;
77876;SDS011;67251;50.844;7.978;2023-09-08T11:37:10;5.75;;;3.22;;
77876;SDS011;67251;50.844;7.978;2023-09-08T11:39:44;5.93;;;3.25;;
77876;SDS011;67251;50.844;7.978;2023-09-08T11:42:12;6.72;;;3.42;;
77876;SDS011;67251;50.844;7.978;2023-09-08T11:44:39;6.50;;;3.20;;
77876;SDS011;67251;50.844;7.978;2023-09-08T11:47:06;5.90;;;3.35;;
77876;SDS011;67251;50.844;7.978;2023-09-08T11:49:36;5.00;;;3.13;;
77876;SDS011;67251;50.844;7.978;2023-09-08T11:52:02;5.72;;;3.28;;
77876;SDS011;67251;50.844;7.978;2023-09-08T11:54:28;5.60;;;3.20;;
77876;SDS011;67251;50.844;7.978;2023-09-08T11:56:56;6.60;;;3.50;;
77876;SDS011;67251;50.844;7.978;2023-09-08T11:59:24;6.72;;;3.20;;
77876;SDS011;67251;50.844;7.978;2023-09-08T12:01:50;5.97;;;3.25;;
77876;SDS011;67251;50.844;7.978;2023-09-08T12:04:17;5.95;;;3.33;;
77876;SDS011;67251;50.844;7.978;2023-09-08T12:06:46;5.22;;;3.03;;
77876;SDS011;67251;50.844;7.978;2023-09-08T12:09:12;5.60;;;3.20;;
77876;SDS011;67251;50.844;7.978;2023-09-08T12:11:38;6.22;;;3.00;;
77876;SDS011;67251;50.844;7.978;2023-09-08T12:16:34;5.38;;;3.10;;
77876;SDS011;67251;50.844;7.978;2023-09-08T12:19:00;5.85;;;3.33;;
77876;SDS011;67251;50.844;7.978;2023-09-08T12:21:25;5.68;;;3.28;;
77876;SDS011;67251;50.844;7.978;2023-09-08T12:23:51;6.78;;;3.42;;
77876;SDS011;67251;50.844;7.978;2023-09-08T12:26:20;6.53;;;3.15;;
77876;SDS011;67251;50.844;7.978;2023-09-08T12:28:46;6.47;;;3.85;;
77876;SDS011;67251;50.844;7.978;2023-09-08T12:31:15;7.07;;;3.63;;
77876;SDS011;67251;50.844;7.978;2023-09-08T12:33:45;6.10;;;2.97;;
77876;SDS011;67251;50.844;7.978;2023-09-08T12:38:41;6.22;;;2.92;;
77876;SDS011;67251;50.844;7.978;2023-09-08T12:41:06;6.10;;;3.20;;
77876;SDS011;67251;50.844;7.978;2023-09-08T12:43:32;6.07;;;3.30;;
77876;SDS011;67251;50.844;7.978;2023-09-08T12:45:57;5.88;;;3.40;;
77876;SDS011;67251;50.844;7.978;2023-09-08T12:48:23;5.53;;;3.10;;
77876;SDS011;67251;50.844;7.978;2023-09-08T12:50:48;6.10;;;3.22;;
77876;SDS011;67251;50.844;7.978;2023-09-08T12:53:14;6.32;;;3.45;;
77876;SDS011;67251;50.844;7.978;2023-09-08T12:55:40;5.70;;;3.17;;
77876;SDS011;67251;50.844;7.978;2023-09-08T12:58:05;5.63;;;3.47;;
77876;SDS011;67251;50.844;7.978;2023-09-08T13:00:31;6.32;;;3.17;;
77876;SDS011;67251;50.844;7.978;2023-09-08T13:02:56;6.15;;;2.92;;
77876;SDS011;67251;50.844;7.978;2023-09-08T13:05:21;5.47;;;2.88;;
77876;SDS011;67251;50.844;7.978;2023-09-08T13:07:46;5.57;;;3.20;;
77876;SDS011;67251;50.844;7.978;2023-09-08T13:10:12;5.32;;;3.33;;
77876;SDS011;67251;50.844;7.978;2023-09-08T13:12:37;5.82;;;3.13;;
77876;SDS011;67251;50.844;7.978;2023-09-08T13:15:03;5.40;;;3.22;;
77876;SDS011;67251;50.844;7.978;2023-09-08T13:17:29;5.15;;;2.92;;
77876;SDS011;67251;50.844;7.978;2023-09-08T13:19:54;5.90;;;3.22;;
77876;SDS011;67251;50.844;7.978;2023-09-08T13:22:19;6.30;;;3.97;;
77876;SDS011;67251;50.844;7.978;2023-09-08T13:24:45;7.22;;;3.30;;
77876;SDS011;67251;50.844;7.978;2023-09-08T13:27:10;7.25;;;3.67;;
77876;SDS011;67251;50.844;7.978;2023-09-08T13:29:36;6.60;;;3.70;;
77876;SDS011;67251;50.844;7.978;2023-09-08T13:32:03;5.50;;;3.55;;
77876;SDS011;67251;50.844;7.978;2023-09-08T13:34:29;5.47;;;3.50;;
77876;SDS011;67251;50.844;7.978;2023-09-08T13:36:54;6.45;;;3.83;;
77876;SDS011;67251;50.844;7.978;2023-09-08T13:39:20;5.47;;;3.00;;
77876;SDS011;67251;50.844;7.978;2023-09-08T13:41:46;7.10;;;3.17;;
77876;SDS011;67251;50.844;7.978;2023-09-08T13:44:13;6.07;;;3.25;;
77876;SDS011;67251;50.844;7.978;2023-09-08T13:46:38;5.53;;;3.50;;
77876;SDS011;67251;50.844;7.978;2023-09-08T13:49:03;6.10;;;3.10;;
77876;SDS011;67251;50.844;7.978;2023-09-08T13:51:29;7.10;;;3.38;;
77876;SDS011;67251;50.844;7.978;2023-09-08T13:53:54;6.72;;;3.80;;
77876;SDS011;67251;50.844;7.978;2023-09-08T13:56:20;6.55;;;3.40;;
77876;SDS011;67251;50.844;7.978;2023-09-08T13:58:45;6.97;;;3.25;;
77876;SDS011;67251;50.844;7.978;2023-09-08T14:01:11;6.25;;;3.50;;
77876;SDS011;67251;50.844;7.978;2023-09-08T14:03:36;4.95;;;3.08;;
77876;SDS011;67251;50.844;7.978;2023-09-08T14:06:02;5.15;;;3.00;;
77876;SDS011;67251;50.844;7.978;2023-09-08T14:08:27;7.32;;;3.38;;
77876;SDS011;67251;50.844;7.978;2023-09-08T14:10:53;6.55;;;3.40;;
77876;SDS011;67251;50.844;7.978;2023-09-08T14:13:19;6.35;;;3.30;;
77876;SDS011;67251;50.844;7.978;2023-09-08T14:15:44;5.38;;;3.00;;
77876;SDS011;67251;50.844;7.978;2023-09-08T14:18:10;5.90;;;3.35;;
77876;SDS011;67251;50.844;7.978;2023-09-08T14:20:35;6.28;;;3.30;;
77876;SDS011;67251;50.844;7.978;2023-09-08T14:23:00;5.50;;;3.40;;
77876;SDS011;67251;50.844;7.978;2023-09-08T14:25:26;5.82;;;3.38;;
77876;SDS011;67251;50.844;7.978;2023-09-08T14:27:51;5.32;;;3.08;;
77876;SDS011;67251;50.844;7.978;2023-09-08T14:30:17;5.90;;;3.13;;
77876;SDS011;67251;50.844;7.978;2023-09-08T14:32:42;5.60;;;3.33;;
77876;SDS011;67251;50.844;7.978;2023-09-08T14:35:07;5.90;;;3.20;;
77876;SDS011;67251;50.844;7.978;2023-09-08T14:37:33;5.78;;;3.22;;
77876;SDS011;67251;50.844;7.978;2023-09-08T14:40:01;5.78;;;3.00;;
77876;SDS011;67251;50.844;7.978;2023-09-08T14:42:26;7.05;;;3.42;;
77876;SDS011;67251;50.844;7.978;2023-09-08T14:44:52;5.00;;;3.00;;
77876;SDS011;67251;50.844;7.978;2023-09-08T14:47:17;6.65;;;3.20;;
77876;SDS011;67251;50.844;7.978;2023-09-08T14:49:43;8.13;;;3.55;;
77876;SDS011;67251;50.844;7.978;2023-09-08T14:52:08;6.10;;;3.30;;
77876;SDS011;67251;50.844;7.978;2023-09-08T14:54:34;6.68;;;3.30;;
77876;SDS011;67251;50.844;7.978;2023-09-08T14:56:59;5.35;;;3.00;;
77876;SDS011;67251;50.844;7.978;2023-09-08T14:59:24;5.20;;;2.83;;